General Abelardo L. Rodríguez International Airport
MMTJ : now visible

Airfield :











YOU CAN JOIN US ON...

 
LOGIN :

Register | Disclaimer

   EN    FR    IT 

 









Legend :    VFR   Marginal VFR   IFR   Intensive IFR   Very Intensive IFR
Visi :
Ceiling :
>= 8 km
>= 3000ft
5 to 8 km
1000 to 3000 ft
1500m to 5 km
500 to 1000 ft
800 to 1500m
200 to 500 ft
< 800m
< 200 ft
Symbols :   Thunderstorms  Fog  Heavy snow  Heavy precipitations  Wind > 20 kt






- Airport Elevation : 489 ft
- IATA code : TIJ


MMTJ - General Abelardo L. Rodríguez International

CURRENT METAR :
  • 211646Z 00000KT 8SM SKC 18/08 A2998 RMK HZY ST W

EXPIRED METARs :
  • 211549Z 16004KT 8SM SKC 17/09 A2999 RMK HZY ST W
  • 211443Z 00000KT 8SM SCT025 15/08 A2999 RMK SLP153 52004 975 8/500 HZY
  • 211340Z 00000KT 8SM SCT024 13/09 A2998 RMK 8/500 HZY
  • 211240Z 00000KT 8SM BKN024 13/08 A2997 RMK 8/500

TAF TAF MMTJ
Valid from the 21 at 12:00 until the 22 at 12:00 UTC


211125Z 2112/2212 00000KT P6SM BKN025 TX20/2120Z TN15/2212Z
FM211500 00000KT P6SM SCT025
FM211900 27012KT P6SM SKC
FM220300 27005KT 6SM HZ SCT020
FM220900 00000KT P6SM BKN020
MMFR FIR / North America



MET'MAP, your aeronautical weather chart ! - Copyright ORBIFLY December 2007 - Disclaimer

ORBIFLY MET'MAP TEAM :

Programming & Development : Alexandra Zaïnal
Original concept : Baudouin d'Aumeries
Technical & hardware support : Manuel Goepfert
Assistance : Marc-Olivier Méhu




SOURCES & CREDITS :

   NOAA       Earth
Advisory